Time;durP1;ratioP1;P1;durP2;ratioP2;P2;SDS_P1;SDS_P2;PMS_P1;PMS_P2;Temp;Humidity;BMP_temperature;BMP_pressure;BME280_temperature;BME280_humidity;BME280_pressure;Samples;Min_cycle;Max_cycle;Signal;HPM_P1;HPM_P2
2022/07/16 00:01:23;;;;;;;10.52;3.28;;;13.30;99.90;;;;;;5054452;28;20041;-71
2022/07/16 00:04:00;;;;;;;4.78;3.03;;;13.20;99.90;;;;;;5054956;28;20032;-71
2022/07/16 00:06:28;;;;;;;7.40;3.72;;;13.10;99.90;;;;;;5054699;28;20087;-71
2022/07/16 00:08:54;;;;;;;9.52;3.95;;;13.10;99.90;;;;;;5055004;28;20026;-71
2022/07/16 00:11:21;;;;;;;6.88;3.10;;;13.10;99.90;;;;;;5054599;28;20501;-71
2022/07/16 00:13:47;;;;;;;8.88;3.25;;;13.10;99.90;;;;;;5054717;28;20032;-71
2022/07/16 00:16:14;;;;;;;7.05;3.67;;;13.10;99.90;;;;;;5054119;28;20021;-71
2022/07/16 00:21:25;;;;;;;8.95;3.45;;;13.00;99.90;;;;;;5054592;28;20474;-71
2022/07/16 00:23:51;;;;;;;6.57;2.80;;;13.00;99.90;;;;;;5054409;28;20064;-71
2022/07/16 00:26:17;;;;;;;6.95;3.78;;;13.00;99.90;;;;;;5053704;28;20040;-71
2022/07/16 00:28:42;;;;;;;4.82;3.05;;;13.00;99.90;;;;;;5053782;28;20040;-71
2022/07/16 00:31:08;;;;;;;14.02;3.58;;;13.00;99.90;;;;;;5054077;28;20029;-71
2022/07/16 00:33:34;;;;;;;11.55;3.30;;;13.00;99.90;;;;;;5054107;28;20032;-71
2022/07/16 00:36:00;;;;;;;7.60;3.53;;;13.00;99.90;;;;;;5053588;28;20029;-71
2022/07/16 00:38:25;;;;;;;11.45;3.40;;;13.10;99.90;;;;;;5056767;28;20029;-71
2022/07/16 00:40:52;;;;;;;8.65;3.90;;;13.00;99.90;;;;;;5033089;28;20033;-71
2022/07/16 00:43:17;;;;;;;5.97;3.30;;;13.00;99.90;;;;;;5037268;28;20025;-71
2022/07/16 00:45:43;;;;;;;5.25;3.05;;;12.90;99.90;;;;;;5037366;28;20032;-71
2022/07/16 00:48:09;;;;;;;5.63;2.92;;;13.00;99.90;;;;;;5045778;28;20067;-71
2022/07/16 00:50:36;;;;;;;13.68;3.55;;;12.90;99.90;;;;;;5057331;28;20040;-71
2022/07/16 00:53:03;;;;;;;13.45;3.70;;;12.90;99.90;;;;;;5056791;28;20040;-71
2022/07/16 00:55:28;;;;;;;4.40;3.28;;;12.80;99.90;;;;;;5056680;28;20053;-71
2022/07/16 00:57:55;;;;;;;3.95;2.40;;;12.80;99.90;;;;;;5056747;28;20426;-71
2022/07/16 01:00:21;;;;;;;10.50;2.42;;;12.90;99.90;;;;;;5056453;28;20036;-71
2022/07/16 01:02:47;;;;;;;7.03;2.97;;;12.70;99.90;;;;;;5056833;28;20033;-71
2022/07/16 01:05:12;;;;;;;9.88;2.83;;;12.50;99.90;;;;;;5056842;28;20029;-71
2022/07/16 01:07:38;;;;;;;3.55;2.13;;;12.40;99.90;;;;;;5067991;22;20378;-69
2022/07/16 01:10:05;;;;;;;9.30;2.28;;;12.40;99.90;;;;;;5036020;28;20094;-69
2022/07/16 01:12:31;;;;;;;7.35;2.45;;;12.30;99.90;;;;;;5018039;28;20029;-69
2022/07/16 01:14:57;;;;;;;10.10;3.00;;;12.30;99.90;;;;;;5035751;28;20403;-69
2022/07/16 01:17:23;;;;;;;10.07;2.60;;;12.20;99.90;;;;;;5035714;28;20021;-68
2022/07/16 01:19:50;;;;;;;10.57;2.78;;;12.20;99.90;;;;;;5035883;28;20091;-69
2022/07/16 01:22:20;;;;;;;9.65;2.65;;;12.20;99.90;;;;;;5035825;28;20021;-69
2022/07/16 01:24:46;;;;;;;2.50;2.30;;;12.40;99.90;;;;;;5035338;28;20112;-69
2022/07/16 01:27:12;;;;;;;7.03;2.70;;;12.30;99.90;;;;;;5035502;28;20045;-69
2022/07/16 01:29:37;;;;;;;8.80;2.95;;;12.30;99.90;;;;;;5035412;28;20489;-69
2022/07/16 01:32:03;;;;;;;7.03;3.50;;;12.50;99.90;;;;;;5035370;28;20018;-69
2022/07/16 01:34:29;;;;;;;5.30;2.97;;;12.50;99.90;;;;;;5035337;28;20104;-69
2022/07/16 01:37:15;;;;;;;8.65;2.83;;;12.50;99.90;;;;;;5035191;28;20025;-69
2022/07/16 01:39:42;;;;;;;14.48;3.45;;;12.50;99.90;;;;;;5035311;28;20091;-69
2022/07/16 01:42:10;;;;;;;11.77;2.88;;;12.50;99.90;;;;;;5035363;28;20041;-68
2022/07/16 01:44:37;;;;;;;9.23;3.17;;;12.30;99.90;;;;;;5034903;28;20378;-69
2022/07/16 01:47:05;;;;;;;12.10;3.92;;;12.30;99.90;;;;;;5035058;28;20028;-68
2022/07/16 01:49:35;;;;;;;15.50;2.83;;;12.30;99.90;;;;;;5034876;28;20523;-68
2022/07/16 01:52:13;;;;;;;10.55;2.97;;;12.20;99.90;;;;;;5035212;28;20022;-68
2022/07/16 01:54:45;;;;;;;8.82;3.35;;;12.20;99.90;;;;;;5034397;28;20112;-68
2022/07/16 01:57:11;;;;;;;5.97;2.95;;;12.10;99.90;;;;;;5034776;28;20067;-68
2022/07/16 01:59:37;;;;;;;9.32;2.80;;;12.10;99.90;;;;;;5034791;28;20029;-68
2022/07/16 02:02:03;;;;;;;6.53;2.92;;;12.00;99.90;;;;;;5034568;28;20033;-68
2022/07/16 02:04:29;;;;;;;13.73;3.35;;;11.90;99.90;;;;;;5034371;28;20097;-68
2022/07/16 02:06:54;;;;;;;11.45;2.97;;;11.80;99.90;;;;;;5034476;28;20030;-68
2022/07/16 02:09:20;;;;;;;14.02;3.35;;;11.80;99.90;;;;;;5034567;28;20430;-68
2022/07/16 02:11:45;;;;;;;7.93;3.10;;;11.80;99.90;;;;;;5034550;28;20469;-68
2022/07/16 02:14:11;;;;;;;8.93;3.40;;;11.70;99.90;;;;;;5034504;28;20033;-68
2022/07/16 02:16:37;;;;;;;9.48;3.03;;;11.70;99.90;;;;;;5034514;28;20055;-68
2022/07/16 02:19:02;;;;;;;12.32;4.00;;;11.70;99.90;;;;;;5034453;28;20488;-68
2022/07/16 02:21:29;;;;;;;15.23;3.50;;;11.70;99.90;;;;;;5034265;28;20026;-68
2022/07/16 02:23:55;;;;;;;18.95;3.25;;;11.70;99.90;;;;;;5034227;28;20076;-68
2022/07/16 02:26:20;;;;;;;12.52;3.65;;;11.70;99.90;;;;;;5034153;28;20030;-68
2022/07/16 02:28:46;;;;;;;10.93;3.35;;;11.70;99.90;;;;;;5034488;28;20028;-68
2022/07/16 02:31:11;;;;;;;15.07;3.75;;;11.70;99.90;;;;;;5034047;28;20033;-68
2022/07/16 02:33:37;;;;;;;8.38;3.22;;;11.70;99.90;;;;;;5034086;28;20022;-68
2022/07/16 02:36:02;;;;;;;16.48;4.78;;;11.70;99.90;;;;;;5034115;28;20052;-68
2022/07/16 02:38:28;;;;;;;23.92;4.38;;;11.80;99.90;;;;;;5033941;28;20433;-68
2022/07/16 02:40:54;;;;;;;23.90;4.35;;;11.70;99.90;;;;;;5034037;28;20124;-68
2022/07/16 02:43:19;;;;;;;9.13;3.80;;;11.90;99.90;;;;;;5033808;28;20515;-68
2022/07/16 02:45:45;;;;;;;20.02;4.22;;;11.90;99.90;;;;;;5033852;28;20029;-68
2022/07/16 02:48:11;;;;;;;9.43;4.20;;;12.00;99.90;;;;;;5033780;28;20377;-68
2022/07/16 02:50:37;;;;;;;23.20;5.03;;;12.00;99.90;;;;;;5033874;28;20033;-68
2022/07/16 02:53:03;;;;;;;17.17;4.57;;;11.80;99.90;;;;;;5033788;28;20537;-68
2022/07/16 02:55:29;;;;;;;11.55;4.45;;;11.90;99.90;;;;;;5033711;28;20108;-68
2022/07/16 02:57:54;;;;;;;22.65;4.18;;;11.70;99.90;;;;;;5033611;28;20064;-68
2022/07/16 03:00:20;;;;;;;13.35;4.68;;;11.70;99.90;;;;;;5033158;28;20053;-68
2022/07/16 03:02:47;;;;;;;27.77;4.53;;;11.70;99.90;;;;;;5033956;28;20037;-68
2022/07/16 03:05:13;;;;;;;12.65;4.38;;;11.70;99.90;;;;;;5033540;28;20022;-68
2022/07/16 03:07:38;;;;;;;19.98;4.38;;;11.60;99.90;;;;;;5015674;28;20034;-68
2022/07/16 03:10:06;;;;;;;20.20;3.92;;;11.60;99.90;;;;;;5033570;28;20105;-68
2022/07/16 03:12:32;;;;;;;10.75;4.28;;;11.60;99.90;;;;;;5033743;28;20104;-68
2022/07/16 03:14:58;;;;;;;16.27;3.85;;;11.60;99.90;;;;;;5033499;28;20104;-68
2022/07/16 03:17:24;;;;;;;19.83;4.35;;;11.60;99.90;;;;;;5033651;28;20037;-68
2022/07/16 03:19:49;;;;;;;15.40;4.65;;;11.60;99.90;;;;;;5033431;28;20032;-68
2022/07/16 03:22:16;;;;;;;13.65;3.53;;;11.70;99.90;;;;;;5033405;28;20025;-68
2022/07/16 03:24:42;;;;;;;14.13;3.60;;;11.80;99.90;;;;;;5033576;28;20029;-68
2022/07/16 03:27:07;;;;;;;46.92;3.63;;;11.70;99.90;;;;;;5033294;28;20461;-68
2022/07/16 03:29:33;;;;;;;19.90;3.05;;;11.80;99.90;;;;;;5033278;28;20030;-68
2022/07/16 03:31:59;;;;;;;20.13;3.33;;;11.90;99.90;;;;;;5033319;28;20089;-68
2022/07/16 03:34:24;;;;;;;9.40;2.80;;;11.80;99.90;;;;;;5033190;28;20037;-68
2022/07/16 03:36:50;;;;;;;15.45;2.83;;;11.90;99.90;;;;;;5033739;28;20036;-68
2022/07/16 03:39:15;;;;;;;13.65;2.70;;;11.80;99.90;;;;;;5033191;28;20491;-68
2022/07/16 03:41:41;;;;;;;21.20;3.08;;;11.90;99.90;;;;;;5033247;28;20559;-68
2022/07/16 03:44:09;;;;;;;16.80;3.03;;;11.90;99.90;;;;;;5033084;28;20385;-68
2022/07/16 03:46:35;;;;;;;15.40;2.40;;;11.90;99.90;;;;;;5032845;28;20021;-68
2022/07/16 03:49:02;;;;;;;11.90;2.35;;;11.90;99.90;;;;;;5032711;28;20420;-68
2022/07/16 03:51:28;;;;;;;14.25;2.45;;;11.70;99.90;;;;;;5033179;28;20026;-68
2022/07/16 03:53:53;;;;;;;14.55;3.22;;;11.60;99.90;;;;;;5033103;28;20026;-68
2022/07/16 03:56:19;;;;;;;10.98;2.40;;;11.50;99.90;;;;;;5032959;28;20096;-68
2022/07/16 03:58:45;;;;;;;13.52;2.85;;;11.50;99.90;;;;;;5033356;28;20079;-68
2022/07/16 04:01:10;;;;;;;12.85;3.08;;;11.40;99.90;;;;;;5033030;28;20079;-68
2022/07/16 04:03:37;;;;;;;23.10;2.67;;;11.40;99.90;;;;;;5033035;28;20511;-68
2022/07/16 04:06:04;;;;;;;22.63;3.50;;;11.30;99.90;;;;;;5032961;28;20041;-68
2022/07/16 04:08:30;;;;;;;17.40;2.42;;;11.30;99.90;;;;;;5032854;28;20025;-68
2022/07/16 04:10:56;;;;;;;26.83;3.08;;;11.40;99.90;;;;;;5032819;28;20029;-68
2022/07/16 04:13:22;;;;;;;13.80;2.28;;;11.40;99.90;;;;;;5036072;28;20022;-68
2022/07/16 04:15:47;;;;;;;26.33;2.53;;;11.30;99.90;;;;;;5036688;28;20071;-68
2022/07/16 04:18:13;;;;;;;11.52;1.88;;;11.40;99.90;;;;;;5036639;28;20104;-68
2022/07/16 04:20:39;;;;;;;15.27;2.58;;;11.50;99.90;;;;;;5036627;28;20033;-68
2022/07/16 04:23:05;;;;;;;12.13;2.78;;;11.40;99.90;;;;;;5036655;28;20022;-68
2022/07/16 04:25:31;;;;;;;18.60;2.28;;;11.50;99.90;;;;;;5036476;28;20032;-68
2022/07/16 04:27:56;;;;;;;13.20;2.25;;;11.60;99.90;;;;;;5036645;28;20025;-67
2022/07/16 04:30:22;;;;;;;17.98;2.90;;;11.50;99.90;;;;;;5036480;28;20018;-67
2022/07/16 04:32:48;;;;;;;17.20;2.63;;;11.50;99.90;;;;;;5036406;28;20024;-67
2022/07/16 04:35:15;;;;;;;12.15;2.17;;;11.80;99.90;;;;;;5036393;28;20048;-67
2022/07/16 04:37:41;;;;;;;16.70;2.55;;;11.80;99.90;;;;;;5036283;28;20029;-67
2022/07/16 04:40:10;;;;;;;24.90;3.42;;;11.90;99.90;;;;;;5018563;28;20037;-67
2022/07/16 04:42:37;;;;;;;17.73;2.08;;;12.10;99.90;;;;;;5036175;28;20025;-67
2022/07/16 04:45:04;;;;;;;12.52;2.65;;;12.10;99.90;;;;;;5036252;28;20108;-67
2022/07/16 04:47:29;;;;;;;12.65;2.20;;;12.10;99.90;;;;;;5036003;28;20029;-67
2022/07/16 04:49:55;;;;;;;18.75;3.47;;;12.10;99.90;;;;;;5036011;28;20018;-67
2022/07/16 04:52:21;;;;;;;26.25;2.35;;;11.90;99.90;;;;;;5036087;28;20029;-67
2022/07/16 04:54:46;;;;;;;8.40;1.75;;;11.80;99.90;;;;;;5035955;28;20030;-67
2022/07/16 04:57:12;;;;;;;17.42;2.35;;;11.70;99.90;;;;;;5035889;28;20026;-67
2022/07/16 04:59:37;;;;;;;12.43;1.83;;;11.90;99.90;;;;;;5035908;28;20022;-67
2022/07/16 05:04:47;;;;;;;;;;;12.00;99.90;;;;;;5036425;28;20492;-67
2022/07/16 05:07:12;;;;;;;14.05;1.92;;;12.20;99.90;;;;;;5035501;28;19913;-67
2022/07/16 05:09:38;;;;;;;19.23;2.70;;;12.40;99.90;;;;;;5035722;28;20022;-67
2022/07/16 05:12:04;;;;;;;15.48;2.83;;;12.70;99.90;;;;;;5035680;28;20559;-67
2022/07/16 05:14:29;;;;;;;20.30;3.38;;;12.80;99.90;;;;;;5035488;28;20037;-68
2022/07/16 05:16:56;;;;;;;20.90;2.35;;;12.90;99.90;;;;;;5035410;28;20413;-67
2022/07/16 05:19:22;;;;;;;19.70;3.03;;;13.00;99.90;;;;;;5017817;28;20026;-67
2022/07/16 05:21:48;;;;;;;20.50;2.25;;;13.00;99.90;;;;;;5035405;28;20032;-68
2022/07/16 05:24:13;;;;;;;13.85;2.53;;;13.10;99.90;;;;;;5035273;28;20026;-67
2022/07/16 05:26:39;;;;;;;14.50;1.88;;;13.10;99.90;;;;;;5035342;28;20105;-67
2022/07/16 05:29:04;;;;;;;14.65;2.22;;;13.20;99.90;;;;;;5035312;28;20021;-68
2022/07/16 05:31:30;;;;;;;11.80;2.40;;;13.30;99.90;;;;;;5035895;28;20072;-67
2022/07/16 05:33:55;;;;;;;15.88;2.63;;;13.00;99.90;;;;;;5035290;28;20021;-67
2022/07/16 05:36:21;;;;;;;14.60;2.60;;;13.00;99.90;;;;;;5035188;28;20057;-67
2022/07/16 05:38:46;;;;;;;11.85;2.38;;;13.10;99.90;;;;;;5035292;28;20393;-68
2022/07/16 05:41:12;;;;;;;10.95;2.05;;;13.10;99.90;;;;;;5035191;28;20038;-68
2022/07/16 05:43:37;;;;;;;16.30;2.00;;;13.10;99.90;;;;;;5035548;28;20052;-67
2022/07/16 05:46:03;;;;;;;13.32;1.77;;;13.10;99.90;;;;;;5035256;28;20080;-68
2022/07/16 05:48:29;;;;;;;14.30;2.95;;;13.20;99.90;;;;;;5035170;28;20018;-68
2022/07/16 05:50:55;;;;;;;9.50;1.50;;;13.30;99.90;;;;;;5034920;28;20034;-68
2022/07/16 05:53:21;;;;;;;18.15;2.33;;;13.30;99.90;;;;;;5034856;28;20431;-68
2022/07/16 05:55:46;;;;;;;13.30;2.03;;;13.40;99.90;;;;;;5034850;28;20029;-68
2022/07/16 05:58:12;;;;;;;13.32;1.98;;;13.40;99.90;;;;;;5034787;28;20455;-68
2022/07/16 06:00:37;;;;;;;13.18;2.83;;;13.50;99.90;;;;;;5034709;28;20023;-68
2022/07/16 06:03:03;;;;;;;16.23;2.80;;;13.50;99.90;;;;;;5034317;28;20033;-68
2022/07/16 06:05:29;;;;;;;12.88;1.52;;;13.50;99.90;;;;;;5034642;28;20033;-68
2022/07/16 06:07:54;;;;;;;10.05;1.70;;;13.60;99.90;;;;;;5034482;28;20041;-68
2022/07/16 06:10:20;;;;;;;12.75;2.08;;;13.50;99.90;;;;;;5034592;28;20064;-68
2022/07/16 06:12:45;;;;;;;17.77;2.10;;;13.50;99.90;;;;;;5034539;28;20079;-68
2022/07/16 06:15:12;;;;;;;16.05;2.08;;;13.70;99.90;;;;;;5034464;28;20073;-68
2022/07/16 06:17:38;;;;;;;14.55;2.75;;;14.00;99.90;;;;;;5034649;28;20532;-68
2022/07/16 06:20:06;;;;;;;15.93;1.10;;;14.20;99.90;;;;;;5034865;28;20541;-68
2022/07/16 06:22:32;;;;;;;7.97;1.73;;;14.00;99.90;;;;;;5034325;28;20543;-68
2022/07/16 06:24:58;;;;;;;22.55;2.17;;;13.80;99.90;;;;;;5034206;28;20553;-68
2022/07/16 06:27:23;;;;;;;8.48;1.83;;;13.60;99.90;;;;;;5034349;28;20061;-68
2022/07/16 06:29:49;;;;;;;13.05;1.92;;;13.70;99.90;;;;;;5034346;28;20075;-68
2022/07/16 06:32:15;;;;;;;12.88;1.85;;;13.90;99.90;;;;;;5034104;28;20030;-68
2022/07/16 06:34:40;;;;;;;14.90;2.20;;;14.00;99.90;;;;;;5033891;28;20022;-68
2022/07/16 06:37:06;;;;;;;10.13;1.83;;;14.10;99.90;;;;;;5034016;28;20560;-68
2022/07/16 06:39:32;;;;;;;20.60;3.13;;;14.60;99.90;;;;;;5033995;28;20385;-68
2022/07/16 06:41:58;;;;;;;12.48;2.42;;;14.90;99.90;;;;;;5033995;28;20156;-68
2022/07/16 06:44:24;;;;;;;11.77;1.92;;;15.20;99.90;;;;;;5033927;28;20041;-68
2022/07/16 06:46:49;;;;;;;18.63;2.15;;;15.40;99.90;;;;;;5033895;28;20020;-68
2022/07/16 06:49:15;;;;;;;19.35;2.50;;;15.70;99.90;;;;;;5033970;28;20021;-70
2022/07/16 06:51:41;;;;;;;10.63;1.92;;;15.80;99.90;;;;;;5033958;28;20017;-69
2022/07/16 06:54:07;;;;;;;9.73;1.90;;;15.80;99.90;;;;;;5033884;28;20024;-69
2022/07/16 06:56:32;;;;;;;14.25;2.33;;;15.80;99.90;;;;;;5033917;28;20064;-69
2022/07/16 06:58:58;;;;;;;18.23;1.80;;;15.60;99.90;;;;;;5033911;28;20026;-71
2022/07/16 07:01:24;;;;;;;9.77;1.95;;;15.70;99.90;;;;;;5033861;28;20112;-71
2022/07/16 07:03:50;;;;;;;16.67;2.38;;;15.80;99.90;;;;;;5034022;28;20022;-70
2022/07/16 07:06:15;;;;;;;14.20;1.77;;;15.30;99.90;;;;;;5033656;28;20037;-70
2022/07/16 07:08:41;;;;;;;8.40;2.13;;;14.90;99.90;;;;;;5089404;23;20053;-69
2022/07/16 07:11:07;;;;;;;9.40;1.67;;;14.60;99.90;;;;;;5053496;28;20472;-69
2022/07/16 07:13:33;;;;;;;11.02;1.88;;;14.60;99.90;;;;;;5053607;28;20048;-69
2022/07/16 07:15:59;;;;;;;4.88;1.35;;;14.80;99.90;;;;;;5053787;28;20066;-69
2022/07/16 07:18:25;;;;;;;15.65;2.05;;;15.00;99.90;;;;;;5053559;28;20056;-70
2022/07/16 07:20:51;;;;;;;28.52;2.47;;;15.20;99.90;;;;;;5053766;28;20029;-70
2022/07/16 07:23:16;;;;;;;15.18;3.13;;;15.30;99.90;;;;;;5053388;28;20388;-70
2022/07/16 07:25:42;;;;;;;9.10;1.67;;;15.30;99.90;;;;;;5053757;28;20029;-70
2022/07/16 07:28:07;;;;;;;8.60;1.90;;;15.30;99.90;;;;;;5035777;28;20033;-70
2022/07/16 07:30:33;;;;;;;14.50;2.85;;;15.30;99.90;;;;;;5053754;28;20096;-70
2022/07/16 07:33:01;;;;;;;18.90;2.10;;;15.20;99.90;;;;;;5053690;28;20013;-70
2022/07/16 07:35:27;;;;;;;11.05;1.60;;;15.20;99.90;;;;;;5053724;28;20078;-70
2022/07/16 07:37:53;;;;;;;19.45;2.20;;;15.20;99.90;;;;;;5053362;28;20033;-70
2022/07/16 07:40:18;;;;;;;14.55;1.83;;;15.20;99.90;;;;;;5053811;28;20032;-69
2022/07/16 07:42:44;;;;;;;11.23;2.45;;;14.90;99.90;;;;;;5053360;28;20061;-69
2022/07/16 07:45:10;;;;;;;16.73;2.85;;;14.60;99.90;;;;;;5053214;28;20110;-70
2022/07/16 07:47:37;;;;;;;14.73;2.55;;;14.30;99.90;;;;;;5038866;28;20021;-69
2022/07/16 07:50:04;;;;;;;13.00;2.05;;;14.20;99.90;;;;;;5057185;28;20021;-70
2022/07/16 07:52:30;;;;;;;19.15;2.00;;;14.40;99.90;;;;;;5057240;28;20056;-70
2022/07/16 07:54:55;;;;;;;24.58;3.17;;;14.90;99.90;;;;;;5057316;28;20408;-69
2022/07/16 07:57:21;;;;;;;11.25;2.20;;;15.40;99.90;;;;;;5057164;28;20025;-71
2022/07/16 07:59:46;;;;;;;14.80;2.67;;;15.60;99.90;;;;;;5057583;28;20029;-70
2022/07/16 08:02:12;;;;;;;12.70;2.50;;;15.70;99.90;;;;;;5057184;28;20025;-71
2022/07/16 08:04:38;;;;;;;15.48;1.88;;;15.60;99.90;;;;;;5057679;28;20032;-71
2022/07/16 08:07:03;;;;;;;16.17;2.72;;;15.60;99.90;;;;;;5057474;28;20358;-71
2022/07/16 08:09:29;;;;;;;13.50;1.80;;;15.70;99.90;;;;;;5057330;28;20025;-71
2022/07/16 08:11:55;;;;;;;26.25;2.95;;;15.80;99.90;;;;;;5057061;28;20024;-71
2022/07/16 08:14:20;;;;;;;12.60;2.05;;;15.80;99.90;;;;;;5057058;28;20033;-71
2022/07/16 08:16:46;;;;;;;12.50;2.47;;;15.70;99.90;;;;;;5056799;28;20071;-70
2022/07/16 08:19:11;;;;;;;12.88;2.15;;;15.50;99.90;;;;;;5057797;28;20027;-70
2022/07/16 08:21:37;;;;;;;16.20;1.98;;;15.70;99.90;;;;;;5057102;28;20029;-70
2022/07/16 08:26:52;;;;;;;21.17;3.95;;;16.50;99.90;;;;;;5028498;28;20529;-71
2022/07/16 08:29:17;;;;;;;10.82;1.80;;;16.70;99.90;;;;;;5057613;28;20033;-71
2022/07/16 08:31:43;;;;;;;8.50;1.58;;;17.00;99.90;;;;;;5057315;28;20496;-70
2022/07/16 08:34:08;;;;;;;11.75;1.80;;;17.10;99.90;;;;;;5057503;28;20035;-70
2022/07/16 08:36:34;;;;;;;12.50;1.90;;;17.00;99.90;;;;;;5058459;28;20431;-70
2022/07/16 08:39:00;;;;;;;14.27;2.33;;;17.00;99.90;;;;;;5057335;28;20110;-70
2022/07/16 08:41:26;;;;;;;12.13;1.65;;;17.20;99.90;;;;;;5056858;28;20116;-70
2022/07/16 08:43:52;;;;;;;12.07;2.20;;;17.40;99.90;;;;;;5056808;28;20029;-70
2022/07/16 08:46:20;;;;;;;9.63;1.85;;;17.80;99.90;;;;;;5056898;28;20029;-70
2022/07/16 08:48:51;;;;;;;9.35;1.73;;;17.50;99.90;;;;;;5056723;28;20052;-70
2022/07/16 08:51:20;;;;;;;8.45;1.23;;;17.60;99.90;;;;;;5057032;28;20499;-70
2022/07/16 08:53:47;;;;;;;13.98;1.60;;;18.00;99.90;;;;;;5039169;28;20025;-70
2022/07/16 08:56:12;;;;;;;8.07;1.65;;;18.40;99.90;;;;;;5056887;28;20021;-70
2022/07/16 08:58:38;;;;;;;9.48;1.90;;;18.70;99.90;;;;;;5055583;28;20067;-70
2022/07/16 09:01:04;;;;;;;20.25;2.28;;;18.30;99.90;;;;;;5056417;28;20040;-70
2022/07/16 09:03:30;;;;;;;19.42;2.70;;;17.50;99.90;;;;;;5056448;28;20033;-70
2022/07/16 09:05:55;;;;;;;14.10;1.52;;;17.00;99.90;;;;;;5055829;28;20017;-70
2022/07/16 09:08:21;;;;;;;12.55;2.03;;;16.50;99.90;;;;;;5055784;28;20548;-70
2022/07/16 09:10:47;;;;;;;12.20;2.45;;;16.60;99.90;;;;;;5055947;28;20545;-70
2022/07/16 09:13:13;;;;;;;15.13;3.60;;;16.60;99.90;;;;;;5055924;28;20056;-70
2022/07/16 09:15:40;;;;;;;11.48;2.22;;;16.80;99.90;;;;;;5055841;28;20484;-70
2022/07/16 09:18:21;;;;;;;18.60;2.85;;;16.90;99.90;;;;;;5055786;28;20028;-70
2022/07/16 09:21:06;;;;;;;14.40;3.05;;;17.00;99.90;;;;;;5056836;28;20021;-70
2022/07/16 09:23:37;;;;;;;11.55;2.33;;;17.20;99.90;;;;;;5056031;28;20043;-70
2022/07/16 09:26:08;;;;;;;19.02;2.25;;;17.70;99.90;;;;;;5055919;28;20056;-70
2022/07/16 09:28:46;;;;;;;19.75;2.10;;;17.80;99.90;;;;;;5055490;28;20021;-70
2022/07/16 09:31:33;;;;;;;19.73;2.90;;;17.50;99.90;;;;;;5055822;28;20481;-69
2022/07/16 09:34:16;;;;;;;12.50;1.88;;;16.90;99.90;;;;;;5055734;28;20025;-70
2022/07/16 09:36:55;;;;;;;11.77;1.75;;;16.50;99.90;;;;;;5055746;28;20102;-70
2022/07/16 09:39:21;;;;;;;12.15;1.38;;;16.60;99.90;;;;;;5055691;28;20487;-70
2022/07/16 09:41:47;;;;;;;14.20;2.35;;;17.10;99.90;;;;;;5055865;28;20052;-70
2022/07/16 09:44:24;;;;;;;12.68;2.78;;;17.50;99.90;;;;;;5055226;28;20028;-70
2022/07/16 09:47:12;;;;;;;23.60;2.17;;;18.00;99.90;;;;;;5037938;28;20415;-70
2022/07/16 09:49:39;;;;;;;9.80;2.28;;;17.80;99.90;;;;;;5055544;28;20102;-70
2022/07/16 09:52:06;;;;;;;9.13;1.48;;;17.70;99.90;;;;;;5055584;28;20441;-69
2022/07/16 09:54:37;;;;;;;10.50;1.98;;;17.50;99.90;;;;;;5055221;28;20500;-69
2022/07/16 09:57:13;;;;;;;5.88;1.30;;;17.50;99.90;;;;;;5055039;28;20033;-69
2022/07/16 09:59:40;;;;;;;8.68;1.83;;;17.60;99.90;;;;;;5055008;28;20029;-69
2022/07/16 10:02:06;;;;;;;16.23;2.25;;;17.80;99.90;;;;;;5054855;28;20036;-69
2022/07/16 10:04:32;;;;;;;9.98;2.13;;;17.80;99.90;;;;;;5055106;28;20037;-69
2022/07/16 10:06:58;;;;;;;15.10;2.33;;;17.70;99.90;;;;;;5054386;28;20037;-69
2022/07/16 10:09:25;;;;;;;8.27;2.22;;;17.40;99.90;;;;;;5036907;28;20045;-69
2022/07/16 10:11:52;;;;;;;11.15;2.22;;;17.50;99.90;;;;;;5054968;28;20021;-69
2022/07/16 10:14:18;;;;;;;13.35;2.28;;;17.40;99.90;;;;;;5054699;28;20055;-70
2022/07/16 10:16:47;;;;;;;17.45;2.17;;;17.30;99.90;;;;;;5054643;28;20497;-70
2022/07/16 10:19:14;;;;;;;15.43;1.60;;;17.60;99.90;;;;;;5054663;28;20108;-70
2022/07/16 10:21:41;;;;;;;10.55;1.35;;;17.80;99.90;;;;;;5055075;28;20036;-70
2022/07/16 10:24:15;;;;;;;13.00;1.80;;;18.20;99.90;;;;;;5036747;28;20021;-70
2022/07/16 10:26:41;;;;;;;11.77;1.60;;;18.00;99.90;;;;;;5054629;28;20032;-70
2022/07/16 10:29:07;;;;;;;15.75;1.77;;;17.80;99.90;;;;;;5054441;28;20424;-69
2022/07/16 10:34:36;;;;;;;10.68;2.00;;;18.40;99.90;;;;;;5054689;28;20067;-70
2022/07/16 10:37:04;;;;;;;15.63;2.05;;;18.80;99.90;;;;;;5054363;28;20027;-70
2022/07/16 10:39:30;;;;;;;10.85;1.88;;;18.30;99.90;;;;;;5054611;28;20044;-70
2022/07/16 10:41:58;;;;;;;14.88;1.92;;;18.00;99.90;;;;;;5054001;28;20473;-70
2022/07/16 10:44:46;;;;;;;8.38;1.58;;;17.90;99.90;;;;;;5053947;28;20393;-70
2022/07/16 10:47:13;;;;;;;10.13;1.77;;;18.00;99.90;;;;;;5053884;28;20025;-70
2022/07/16 10:49:38;;;;;;;11.68;1.55;;;18.20;99.90;;;;;;5053890;28;20036;-70
2022/07/16 10:52:05;;;;;;;20.20;2.83;;;18.20;99.90;;;;;;5054203;28;20484;-70
2022/07/16 10:54:37;;;;;;;10.60;2.15;;;18.30;99.90;;;;;;5053635;28;20435;-71
2022/07/16 10:57:16;;;;;;;10.93;1.88;;;18.20;99.90;;;;;;5054125;28;20013;-70
2022/07/16 10:59:46;;;;;;;9.45;1.70;;;18.20;99.90;;;;;;5054425;28;20017;-71
2022/07/16 11:02:16;;;;;;;10.82;2.15;;;18.30;99.90;;;;;;5054506;28;20025;-71
2022/07/16 11:04:44;;;;;;;7.68;1.58;;;18.50;99.90;;;;;;5053927;28;20088;-70
2022/07/16 11:07:11;;;;;;;8.18;1.38;;;18.60;99.90;;;;;;5054049;28;20491;-70
2022/07/16 11:09:39;;;;;;;5.90;1.70;;;18.40;99.90;;;;;;5054111;28;20051;-71
2022/07/16 11:12:11;;;;;;;10.13;2.75;;;18.40;99.90;;;;;;5053650;28;20430;-70
2022/07/16 11:14:38;;;;;;;12.52;2.05;;;18.80;99.90;;;;;;5053869;28;20055;-70
2022/07/16 11:17:04;;;;;;;9.80;1.58;;;18.90;99.90;;;;;;5053492;28;20099;-70
2022/07/16 11:19:33;;;;;;;4.32;1.45;;;18.50;99.90;;;;;;5035787;28;20050;-70
2022/07/16 11:22:01;;;;;;;17.48;2.22;;;18.70;99.90;;;;;;5053091;28;20048;-70
2022/07/16 11:24:28;;;;;;;11.38;2.75;;;19.20;99.90;;;;;;5053767;28;20021;-70
2022/07/16 11:26:55;;;;;;;7.63;1.27;;;19.20;99.90;;;;;;5053978;28;20040;-70
2022/07/16 11:29:23;;;;;;;7.65;1.70;;;18.90;99.90;;;;;;5053527;28;20426;-70
2022/07/16 11:31:49;;;;;;;11.80;3.60;;;18.40;99.90;;;;;;5053444;28;20031;-70
2022/07/16 11:34:18;;;;;;;10.18;1.90;;;18.00;99.90;;;;;;5053775;28;20025;-70
2022/07/16 11:36:47;;;;;;;12.32;2.35;;;18.50;99.90;;;;;;5053586;28;20017;-70
2022/07/16 11:39:18;;;;;;;11.45;2.03;;;18.80;99.90;;;;;;5053512;28;20017;-70
2022/07/16 11:41:48;;;;;;;8.68;1.52;;;18.90;99.90;;;;;;5053734;28;20021;-70
2022/07/16 11:44:21;;;;;;;16.40;2.35;;;18.80;99.90;;;;;;5053563;28;20022;-69
2022/07/16 11:46:52;;;;;;;6.75;1.05;;;19.00;99.90;;;;;;5053228;28;20033;-69
2022/07/16 11:49:31;;;;;;;8.05;1.33;;;19.50;99.90;;;;;;5053239;28;20025;-70
2022/07/16 11:52:09;;;;;;;10.23;1.73;;;19.20;99.90;;;;;;5053518;28;20021;-70
2022/07/16 11:54:40;;;;;;;12.73;1.98;;;18.90;99.90;;;;;;5053671;28;20044;-70
2022/07/16 11:57:08;;;;;;;7.13;1.48;;;18.80;99.90;;;;;;5053174;28;20052;-70
2022/07/16 11:59:35;;;;;;;10.85;1.70;;;19.10;99.90;;;;;;5053200;28;20025;-70
2022/07/16 12:02:04;;;;;;;8.93;1.35;;;19.00;99.90;;;;;;5053331;28;20014;-70
2022/07/16 12:04:34;;;;;;;6.03;1.77;;;19.00;99.90;;;;;;5053081;28;20032;-70
2022/07/16 12:07:00;;;;;;;5.45;1.20;;;18.60;99.90;;;;;;5053472;28;20029;-70
2022/07/16 12:09:35;;;;;;;14.40;1.45;;;18.70;99.90;;;;;;5053268;28;20060;-71
2022/07/16 12:12:04;;;;;;;4.35;1.30;;;19.20;99.90;;;;;;5053631;28;20075;-70
2022/07/16 12:14:51;;;;;;;6.47;1.80;;;19.30;99.90;;;;;;5053028;28;20017;-70
2022/07/16 12:17:31;;;;;;;8.63;1.50;;;19.20;99.90;;;;;;5053392;28;20088;-70
2022/07/16 12:20:21;;;;;;;9.15;1.85;;;19.00;99.90;;;;;;5053391;28;20035;-70
2022/07/16 12:22:54;;;;;;;8.38;1.30;;;19.40;99.90;;;;;;5053113;28;20017;-70
2022/07/16 12:25:21;;;;;;;4.22;1.17;;;19.10;99.90;;;;;;5053056;28;20218;-70
2022/07/16 12:27:55;;;;;;;6.55;1.20;;;19.40;99.90;;;;;;5053027;28;20021;-70
2022/07/16 12:30:30;;;;;;;6.72;1.42;;;20.10;99.90;;;;;;5053257;28;20029;-70
2022/07/16 12:32:58;;;;;;;13.60;2.05;;;20.30;99.90;;;;;;5053813;28;20381;-69
2022/07/16 12:35:46;;;;;;;7.85;1.67;;;19.60;99.90;;;;;;5056549;28;20025;-69
2022/07/16 12:38:55;;;;;;;12.27;1.77;;;19.00;99.90;;;;;;5056568;28;20039;-70
2022/07/16 12:41:37;;;;;;;12.70;2.15;;;18.60;99.90;;;;;;5056805;28;20156;-69
2022/07/16 12:44:07;;;;;;;9.43;1.70;;;18.60;99.90;;;;;;5056724;28;20025;-69
2022/07/16 12:46:37;;;;;;;14.93;1.75;;;19.10;99.90;;;;;;5057048;28;20020;-69
2022/07/16 12:49:07;;;;;;;11.43;1.88;;;19.80;99.90;;;;;;5056699;28;20013;-69
2022/07/16 12:51:36;;;;;;;12.38;2.42;;;20.30;99.90;;;;;;5056631;28;20147;-69
2022/07/16 12:54:03;;;;;;;6.55;1.45;;;19.70;99.90;;;;;;5056250;28;20017;-69